PGT5LX LTAY-LTFJ
Flight info
| Callsign | PGT5LX |
|---|---|
| Flight time | 0h 37m |
| Altitude | 30000 |
| Route | ATGIT UT30 SIVKU UL610 APSER UL620 ETAMP |
| Aircraft | A21N/M-SDE3FGHIRWY/LB1 |
Departure
| Time | 2026-04-22 11:30 |
|---|---|
| Airport | Çardak Airport (LTAY) |
Arrival
| Time | 2026-04-22 12:07 |
|---|---|
| Airport | Istanbul Sabiha Gökçen International Airport (LTFJ) |
| Time | Latitude | Longitude | Altitude | Speed | Heading |
|---|---|---|---|---|---|
| 2026-04-22 11:10 | 37.77488 | 29.68971 | 2812 ft | 0 kts | 148° |
| 2026-04-22 11:19 | 37.77498 | 29.68963 | 2813 ft | 2 kts | 159° |
| 2026-04-22 11:19 | 37.77513 | 29.68958 | 2814 ft | 2 kts | 171° |
| 2026-04-22 11:19 | 37.77528 | 29.68957 | 2814 ft | 2 kts | 185° |
| 2026-04-22 11:20 | 37.77543 | 29.68960 | 2814 ft | 2 kts | 197° |
| 2026-04-22 11:20 | 37.77557 | 29.68967 | 2814 ft | 2 kts | 210° |
| 2026-04-22 11:20 | 37.77569 | 29.68979 | 2813 ft | 2 kts | 223° |
| 2026-04-22 11:20 | 37.77578 | 29.68991 | 2812 ft | 1 kts | 235° |
| 2026-04-22 11:21 | 37.77582 | 29.68999 | 2812 ft | 1 kts | 238° |
| 2026-04-22 11:21 | 37.77583 | 29.68999 | 2812 ft | 0 kts | 238° |
| 2026-04-22 11:21 | 37.77582 | 29.68999 | 2812 ft | 0 kts | 238° |
| 2026-04-22 11:22 | 37.77580 | 29.68995 | 2812 ft | 2 kts | 238° |
| 2026-04-22 11:23 | 37.77568 | 29.68970 | 2812 ft | 5 kts | 240° |
| 2026-04-22 11:23 | 37.77576 | 29.68911 | 2812 ft | 9 kts | 319° |
| 2026-04-22 11:23 | 37.77634 | 29.68862 | 2811 ft | 10 kts | 336° |
| 2026-04-22 11:23 | 37.77704 | 29.68820 | 2811 ft | 11 kts | 331° |
| 2026-04-22 11:24 | 37.77780 | 29.68759 | 2811 ft | 15 kts | 326° |
| 2026-04-22 11:24 | 37.77873 | 29.68681 | 2811 ft | 16 kts | 327° |
| 2026-04-22 11:24 | 37.77969 | 29.68607 | 2811 ft | 15 kts | 344° |
| 2026-04-22 11:24 | 37.78046 | 29.68688 | 2810 ft | 15 kts | 58° |
| 2026-04-22 11:25 | 37.78101 | 29.68812 | 2809 ft | 17 kts | 61° |
| 2026-04-22 11:25 | 37.78170 | 29.68960 | 2807 ft | 21 kts | 59° |
| 2026-04-22 11:25 | 37.78254 | 29.69135 | 2805 ft | 25 kts | 59° |
| 2026-04-22 11:25 | 37.78349 | 29.69336 | 2803 ft | 27 kts | 60° |
| 2026-04-22 11:26 | 37.78448 | 29.69543 | 2801 ft | 27 kts | 59° |
| 2026-04-22 11:26 | 37.78545 | 29.69742 | 2800 ft | 25 kts | 60° |
| 2026-04-22 11:26 | 37.78638 | 29.69941 | 2799 ft | 26 kts | 62° |
| 2026-04-22 11:26 | 37.78732 | 29.70140 | 2798 ft | 25 kts | 58° |
| 2026-04-22 11:27 | 37.78823 | 29.70327 | 2798 ft | 24 kts | 59° |
| 2026-04-22 11:27 | 37.78910 | 29.70513 | 2797 ft | 25 kts | 59° |
| 2026-04-22 11:27 | 37.79005 | 29.70712 | 2795 ft | 25 kts | 59° |
| 2026-04-22 11:27 | 37.79096 | 29.70902 | 2794 ft | 25 kts | 60° |
| 2026-04-22 11:28 | 37.79186 | 29.71094 | 2792 ft | 25 kts | 59° |
| 2026-04-22 11:28 | 37.79275 | 29.71280 | 2792 ft | 24 kts | 59° |
| 2026-04-22 11:28 | 37.79355 | 29.71464 | 2791 ft | 22 kts | 86° |
| 2026-04-22 11:28 | 37.79277 | 29.71537 | 2790 ft | 12 kts | 158° |
| 2026-04-22 11:29 | 37.79210 | 29.71499 | 2791 ft | 11 kts | 239° |
| 2026-04-22 11:29 | 37.79118 | 29.71304 | 2792 ft | 58 kts | 239° |
| 2026-04-22 11:29 | 37.78780 | 29.70619 | 2798 ft | 124 kts | 239° |
| 2026-04-22 11:29 | 37.78242 | 29.69480 | 2822 ft | 175 kts | 240° |
| 2026-04-22 11:30 | 37.77611 | 29.68088 | 3307 ft | 184 kts | 243° |
| 2026-04-22 11:30 | 37.76982 | 29.66720 | 4086 ft | 182 kts | 240° |
| 2026-04-22 11:30 | 37.76304 | 29.65381 | 4774 ft | 184 kts | 240° |
| 2026-04-22 11:30 | 37.75605 | 29.63965 | 5188 ft | 199 kts | 240° |
| 2026-04-22 11:31 | 37.74874 | 29.62427 | 5702 ft | 208 kts | 245° |
| 2026-04-22 11:31 | 37.74629 | 29.60664 | 6294 ft | 212 kts | 277° |
| 2026-04-22 11:31 | 37.75074 | 29.58821 | 6715 ft | 228 kts | 290° |
| 2026-04-22 11:31 | 37.76035 | 29.57114 | 6974 ft | 257 kts | 322° |
| 2026-04-22 11:32 | 37.77790 | 29.56299 | 7412 ft | 280 kts | 352° |
| 2026-04-22 11:32 | 37.79746 | 29.56647 | 8104 ft | 292 kts | 17° |
| 2026-04-22 11:32 | 37.81635 | 29.57523 | 8937 ft | 294 kts | 17° |
| 2026-04-22 11:32 | 37.83574 | 29.58405 | 9725 ft | 297 kts | 17° |
| 2026-04-22 11:33 | 37.85517 | 29.59279 | 10482 ft | 301 kts | 16° |
| 2026-04-22 11:33 | 37.87545 | 29.60187 | 10945 ft | 316 kts | 16° |
| 2026-04-22 11:33 | 37.89674 | 29.61137 | 11325 ft | 334 kts | 17° |
| 2026-04-22 11:33 | 37.91913 | 29.62139 | 11682 ft | 351 kts | 17° |
| 2026-04-22 11:34 | 37.94242 | 29.63188 | 12268 ft | 361 kts | 17° |
| 2026-04-22 11:34 | 37.96623 | 29.64265 | 13034 ft | 364 kts | 16° |
| 2026-04-22 11:34 | 37.98986 | 29.65334 | 13776 ft | 367 kts | 16° |
| 2026-04-22 11:34 | 38.01420 | 29.66433 | 14497 ft | 370 kts | 16° |
| 2026-04-22 11:35 | 38.03851 | 29.67530 | 15192 ft | 374 kts | 15° |
| 2026-04-22 11:35 | 38.06314 | 29.68642 | 15863 ft | 377 kts | 15° |
| 2026-04-22 11:35 | 38.08797 | 29.69764 | 16531 ft | 380 kts | 15° |
| 2026-04-22 11:35 | 38.11295 | 29.70891 | 17180 ft | 383 kts | 15° |
| 2026-04-22 11:36 | 38.13867 | 29.71601 | 17947 ft | 373 kts | 359° |
| 2026-04-22 11:36 | 38.16420 | 29.71638 | 18954 ft | 363 kts | 354° |
| 2026-04-22 11:36 | 38.18938 | 29.71561 | 19659 ft | 364 kts | 354° |
| 2026-04-22 11:36 | 38.21485 | 29.71491 | 20231 ft | 368 kts | 354° |
| 2026-04-22 11:37 | 38.24041 | 29.71451 | 20808 ft | 372 kts | 354° |
| 2026-04-22 11:37 | 38.26636 | 29.71438 | 21396 ft | 375 kts | 354° |
| 2026-04-22 11:37 | 38.29275 | 29.71440 | 21973 ft | 378 kts | 354° |
| 2026-04-22 11:37 | 38.31897 | 29.71455 | 22533 ft | 381 kts | 355° |
| 2026-04-22 11:38 | 38.34551 | 29.71476 | 23082 ft | 384 kts | 355° |
| 2026-04-22 11:38 | 38.37251 | 29.71503 | 23617 ft | 387 kts | 355° |
| 2026-04-22 11:38 | 38.42653 | 29.71560 | 23961 ft | 390 kts | 355° |
| 2026-04-22 11:39 | 38.45358 | 29.71592 | 23970 ft | 390 kts | 355° |
| 2026-04-22 11:39 | 38.48075 | 29.71623 | 23972 ft | 390 kts | 355° |
| 2026-04-22 11:39 | 38.50808 | 29.71654 | 24101 ft | 394 kts | 355° |
| 2026-04-22 11:39 | 38.53545 | 29.71685 | 24735 ft | 394 kts | 355° |
| 2026-04-22 11:40 | 38.56235 | 29.71723 | 25713 ft | 384 kts | 354° |
| 2026-04-22 11:40 | 38.58838 | 29.71761 | 26603 ft | 375 kts | 354° |
| 2026-04-22 11:40 | 38.61429 | 29.71794 | 27385 ft | 368 kts | 354° |
| 2026-04-22 11:40 | 38.63982 | 29.71823 | 27860 ft | 369 kts | 354° |
| 2026-04-22 11:41 | 38.66546 | 29.71847 | 28247 ft | 373 kts | 354° |
| 2026-04-22 11:41 | 38.69149 | 29.71874 | 28638 ft | 375 kts | 354° |
| 2026-04-22 11:41 | 38.71773 | 29.71903 | 29025 ft | 378 kts | 354° |
| 2026-04-22 11:41 | 38.74423 | 29.71932 | 29408 ft | 380 kts | 354° |
| 2026-04-22 11:42 | 38.77069 | 29.71963 | 29775 ft | 383 kts | 354° |
| 2026-04-22 11:42 | 38.79752 | 29.71993 | 29955 ft | 390 kts | 354° |
| 2026-04-22 11:42 | 38.82510 | 29.72020 | 29961 ft | 401 kts | 354° |
| 2026-04-22 11:42 | 38.85327 | 29.72050 | 29966 ft | 412 kts | 354° |
| 2026-04-22 11:43 | 38.91182 | 29.72117 | 29966 ft | 426 kts | 355° |
| 2026-04-22 11:43 | 38.97111 | 29.72198 | 29973 ft | 427 kts | 355° |
| 2026-04-22 11:44 | 39.03048 | 29.72273 | 29979 ft | 428 kts | 355° |
| 2026-04-22 11:44 | 39.09008 | 29.72350 | 29970 ft | 429 kts | 354° |
| 2026-04-22 11:45 | 39.14975 | 29.72421 | 29963 ft | 428 kts | 354° |
| 2026-04-22 11:45 | 39.20941 | 29.72494 | 29970 ft | 428 kts | 354° |
| 2026-04-22 11:46 | 39.23929 | 29.72530 | 29788 ft | 428 kts | 354° |
| 2026-04-22 11:46 | 39.26892 | 29.72565 | 29348 ft | 426 kts | 354° |
| 2026-04-22 11:46 | 39.29819 | 29.72587 | 28811 ft | 423 kts | 352° |
| 2026-04-22 11:46 | 39.32695 | 29.71960 | 28516 ft | 421 kts | 335° |
| 2026-04-22 11:47 | 39.35278 | 29.70258 | 28254 ft | 414 kts | 322° |
| 2026-04-22 11:47 | 39.37690 | 29.68229 | 27983 ft | 413 kts | 322° |
| 2026-04-22 11:47 | 39.40082 | 29.66207 | 27710 ft | 413 kts | 322° |
| 2026-04-22 11:47 | 39.42516 | 29.64162 | 27431 ft | 411 kts | 322° |
| 2026-04-22 11:48 | 39.44896 | 29.62174 | 27158 ft | 410 kts | 322° |
| 2026-04-22 11:48 | 39.47301 | 29.60175 | 26883 ft | 408 kts | 322° |
| 2026-04-22 11:48 | 39.49671 | 29.58210 | 26609 ft | 406 kts | 322° |
| 2026-04-22 11:48 | 39.52042 | 29.56247 | 26337 ft | 404 kts | 322° |
| 2026-04-22 11:49 | 39.54406 | 29.54288 | 26064 ft | 402 kts | 322° |
| 2026-04-22 11:49 | 39.56740 | 29.52357 | 25793 ft | 401 kts | 322° |
| 2026-04-22 11:49 | 39.59076 | 29.50423 | 25519 ft | 399 kts | 322° |
| 2026-04-22 11:49 | 39.61431 | 29.48472 | 25242 ft | 398 kts | 323° |
| 2026-04-22 11:50 | 39.63728 | 29.46569 | 24968 ft | 396 kts | 322° |
| 2026-04-22 11:50 | 39.66069 | 29.44627 | 24687 ft | 395 kts | 322° |
| 2026-04-22 11:50 | 39.68355 | 29.42730 | 24410 ft | 394 kts | 322° |
| 2026-04-22 11:50 | 39.70656 | 29.40818 | 24136 ft | 393 kts | 322° |
| 2026-04-22 11:51 | 39.72951 | 29.38911 | 23859 ft | 392 kts | 322° |
| 2026-04-22 11:51 | 39.75245 | 29.36999 | 23587 ft | 390 kts | 322° |
| 2026-04-22 11:51 | 39.77525 | 29.35102 | 23324 ft | 388 kts | 322° |
| 2026-04-22 11:51 | 39.79792 | 29.33213 | 23067 ft | 387 kts | 322° |
| 2026-04-22 11:52 | 39.82039 | 29.31339 | 22815 ft | 385 kts | 321° |
| 2026-04-22 11:52 | 39.84312 | 29.29440 | 22549 ft | 384 kts | 321° |
| 2026-04-22 11:52 | 39.86519 | 29.27596 | 22300 ft | 383 kts | 321° |
| 2026-04-22 11:52 | 39.88773 | 29.25712 | 22045 ft | 382 kts | 321° |
| 2026-04-22 11:53 | 39.90994 | 29.23851 | 21789 ft | 380 kts | 321° |
| 2026-04-22 11:53 | 39.93207 | 29.21999 | 21527 ft | 379 kts | 322° |
| 2026-04-22 11:53 | 39.95402 | 29.20159 | 21280 ft | 378 kts | 321° |
| 2026-04-22 11:53 | 39.97628 | 29.18293 | 21028 ft | 377 kts | 321° |
| 2026-04-22 11:54 | 39.99806 | 29.16466 | 20788 ft | 376 kts | 321° |
| 2026-04-22 11:54 | 40.02011 | 29.14611 | 20532 ft | 375 kts | 321° |
| 2026-04-22 11:54 | 40.04203 | 29.12769 | 20280 ft | 373 kts | 321° |
| 2026-04-22 11:54 | 40.06371 | 29.10944 | 20005 ft | 372 kts | 322° |
| 2026-04-22 11:55 | 40.08530 | 29.09127 | 19701 ft | 370 kts | 322° |
| 2026-04-22 11:55 | 40.10678 | 29.07317 | 19294 ft | 368 kts | 322° |
| 2026-04-22 11:55 | 40.12820 | 29.05511 | 18856 ft | 366 kts | 322° |
| 2026-04-22 11:55 | 40.14954 | 29.03709 | 18356 ft | 363 kts | 322° |
| 2026-04-22 11:56 | 40.17068 | 29.01925 | 17889 ft | 361 kts | 322° |
| 2026-04-22 11:56 | 40.19149 | 29.00168 | 17364 ft | 359 kts | 322° |
| 2026-04-22 11:56 | 40.21329 | 28.98511 | 16750 ft | 366 kts | 331° |
| 2026-04-22 11:56 | 40.23866 | 28.97868 | 15805 ft | 390 kts | 354° |
| 2026-04-22 11:57 | 40.26586 | 28.98079 | 15135 ft | 393 kts | 359° |
| 2026-04-22 11:57 | 40.29301 | 28.98385 | 14640 ft | 389 kts | 359° |
| 2026-04-22 11:57 | 40.31985 | 28.98660 | 14238 ft | 382 kts | 358° |
| 2026-04-22 11:57 | 40.34597 | 28.98888 | 13881 ft | 375 kts | 358° |
| 2026-04-22 11:58 | 40.37180 | 28.99081 | 13517 ft | 368 kts | 357° |
| 2026-04-22 11:58 | 40.39727 | 28.99252 | 13152 ft | 361 kts | 357° |
| 2026-04-22 11:58 | 40.42197 | 28.99404 | 12789 ft | 356 kts | 356° |
| 2026-04-22 11:58 | 40.44663 | 28.99552 | 12401 ft | 350 kts | 357° |
| 2026-04-22 11:59 | 40.47058 | 28.99695 | 12033 ft | 345 kts | 357° |
| 2026-04-22 11:59 | 40.49453 | 28.99837 | 11689 ft | 340 kts | 357° |
| 2026-04-22 11:59 | 40.51775 | 28.99974 | 11313 ft | 335 kts | 358° |
| 2026-04-22 11:59 | 40.54076 | 29.00110 | 10933 ft | 329 kts | 358° |
| 2026-04-22 12:00 | 40.56344 | 29.00242 | 10615 ft | 324 kts | 358° |
| 2026-04-22 12:00 | 40.58576 | 29.00376 | 10262 ft | 320 kts | 359° |
| 2026-04-22 12:00 | 40.60786 | 29.00505 | 9913 ft | 315 kts | 359° |
| 2026-04-22 12:00 | 40.62962 | 29.00635 | 9557 ft | 310 kts | 359° |
| 2026-04-22 12:01 | 40.65079 | 29.00761 | 9195 ft | 305 kts | 359° |
| 2026-04-22 12:01 | 40.67196 | 29.00891 | 8840 ft | 300 kts | 359° |
| 2026-04-22 12:01 | 40.69262 | 29.01012 | 8522 ft | 295 kts | 360° |
| 2026-04-22 12:01 | 40.71291 | 29.01133 | 8210 ft | 291 kts | 0° |
| 2026-04-22 12:02 | 40.73305 | 29.01253 | 7832 ft | 283 kts | 0° |
| 2026-04-22 12:02 | 40.75199 | 29.01366 | 7512 ft | 268 kts | 0° |
| 2026-04-22 12:02 | 40.77009 | 29.01708 | 7071 ft | 262 kts | 20° |
| 2026-04-22 12:02 | 40.78432 | 29.03172 | 6494 ft | 263 kts | 51° |
| 2026-04-22 12:03 | 40.79342 | 29.05213 | 6083 ft | 258 kts | 60° |
| 2026-04-22 12:03 | 40.80116 | 29.07328 | 5668 ft | 254 kts | 62° |
| 2026-04-22 12:03 | 40.80856 | 29.09423 | 5220 ft | 251 kts | 62° |
| 2026-04-22 12:03 | 40.81585 | 29.11459 | 4885 ft | 243 kts | 62° |
| 2026-04-22 12:04 | 40.82296 | 29.13414 | 4662 ft | 231 kts | 62° |
| 2026-04-22 12:04 | 40.82988 | 29.15300 | 4280 ft | 223 kts | 62° |
| 2026-04-22 12:04 | 40.83643 | 29.17084 | 3752 ft | 215 kts | 62° |
| 2026-04-22 12:04 | 40.84278 | 29.18811 | 3344 ft | 205 kts | 62° |
| 2026-04-22 12:05 | 40.84878 | 29.20448 | 2995 ft | 192 kts | 61° |
| 2026-04-22 12:05 | 40.85447 | 29.22001 | 2550 ft | 184 kts | 61° |
| 2026-04-22 12:05 | 40.85983 | 29.23460 | 2158 ft | 176 kts | 60° |
| 2026-04-22 12:05 | 40.86511 | 29.24929 | 1557 ft | 180 kts | 62° |
| 2026-04-22 12:06 | 40.86960 | 29.26521 | 850 ft | 188 kts | 67° |
| 2026-04-22 12:06 | 40.87545 | 29.27952 | 571 ft | 171 kts | 54° |
| 2026-04-22 12:06 | 40.88110 | 29.29231 | 409 ft | 150 kts | 60° |
| 2026-04-22 12:06 | 40.88515 | 29.30376 | 305 ft | 127 kts | 59° |
| 2026-04-22 12:07 | 40.88874 | 29.31303 | 295 ft | 85 kts | 65° |
| 2026-04-22 12:07 | 40.89051 | 29.31779 | 299 ft | 48 kts | 64° |
| 2026-04-22 12:07 | 40.89196 | 29.32158 | 299 ft | 42 kts | 63° |
| 2026-04-22 12:07 | 40.89370 | 29.32430 | 301 ft | 35 kts | 32° |
| 2026-04-22 12:08 | 40.89481 | 29.32481 | 304 ft | 12 kts | 330° |
| 2026-04-22 12:08 | 40.89506 | 29.32384 | 304 ft | 11 kts | 303° |
| 2026-04-22 12:08 | 40.89576 | 29.32336 | 304 ft | 13 kts | 348° |
| 2026-04-22 12:08 | 40.89660 | 29.32289 | 307 ft | 13 kts | 339° |
| 2026-04-22 12:09 | 40.89745 | 29.32247 | 310 ft | 13 kts | 336° |
| 2026-04-22 12:09 | 40.89828 | 29.32194 | 313 ft | 13 kts | 333° |
| 2026-04-22 12:09 | 40.89911 | 29.32142 | 316 ft | 13 kts | 335° |
| 2026-04-22 12:09 | 40.89994 | 29.32086 | 319 ft | 13 kts | 333° |
| 2026-04-22 12:10 | 40.90084 | 29.32063 | 321 ft | 14 kts | 27° |
| 2026-04-22 12:10 | 40.90140 | 29.32183 | 321 ft | 17 kts | 64° |
| 2026-04-22 12:10 | 40.90202 | 29.32352 | 319 ft | 23 kts | 62° |
| 2026-04-22 12:10 | 40.90296 | 29.32561 | 314 ft | 29 kts | 34° |
| 2026-04-22 12:11 | 40.90450 | 29.32485 | 311 ft | 24 kts | 340° |
| 2026-04-22 12:11 | 40.90599 | 29.32395 | 318 ft | 21 kts | 308° |
| 2026-04-22 12:11 | 40.90705 | 29.32281 | 321 ft | 18 kts | 331° |
| 2026-04-22 12:11 | 40.90723 | 29.32180 | 321 ft | 11 kts | 245° |
| 2026-04-22 12:12 | 40.90685 | 29.32081 | 321 ft | 11 kts | 245° |
| 2026-04-22 12:12 | 40.90689 | 29.32031 | 321 ft | 5 kts | 319° |
| 2026-04-22 12:12 | 40.90728 | 29.32007 | 321 ft | 6 kts | 332° |
| 2026-04-22 12:12 | 40.90736 | 29.32002 | 321 ft | 0 kts | 332° |